Terminal Aerodrome Forecast
Issued by NWS

Home | Current Version | Previous Version | Text Only | Print | Product List | Glossary On
Versions: 1 2 3 4 5 6 7 8 9 10 11 12 13 14 15 16 17
000
FTUS46 KSGX 010520
TAFSNA
TAF
KSNA 010520Z 0106/0206 VRB04KT P6SM FEW012 BKN250
     FM010900 VRB03KT P6SM BKN010
     FM011700 VRB05KT P6SM SCT012 SCT250
     FM011900 22009KT P6SM SCT250
     FM020300 VRB05KT P6SM SCT015=

USA.gov is the U.S. government's official web portal to all federal, state and local government web resources and services.